createdAt,value
2018-01-01T00:00:48.774Z,0
2018-01-01T00:01:49.037Z,0
2018-01-01T00:02:48.764Z,0
2018-01-01T00:03:49.009Z,0
2018-01-01T00:04:48.732Z,0
2018-01-01T00:05:48.996Z,0
2018-01-01T00:06:48.996Z,0
2018-01-01T00:07:48.979Z,0
2018-01-01T00:08:48.208Z,0
2018-01-01T00:09:48.711Z,0
2018-01-01T00:10:48.435Z,0
2018-01-01T00:11:48.927Z,0
2018-01-01T00:12:48.750Z,0
2018-01-01T00:13:48.409Z,0
2018-01-01T00:14:48.927Z,0
2018-01-01T00:15:48.651Z,0
2018-01-01T00:16:48.911Z,0
2018-01-01T00:17:48.907Z,0
2018-01-01T00:18:48.890Z,0
2018-01-01T00:19:48.867Z,0
2018-01-01T00:20:48.361Z,0
2018-01-01T00:21:48.330Z,0
2018-01-01T00:22:48.337Z,0
2018-01-01T00:23:48.640Z,0
2018-01-01T00:24:48.835Z,0
2018-01-01T00:25:48.592Z,0
2018-01-01T00:26:48.544Z,0
2018-01-01T00:27:48.809Z,0
2018-01-01T00:28:48.781Z,0
2018-01-01T00:29:48.270Z,0
2018-01-01T00:30:48.524Z,0
2018-01-01T00:31:48.771Z,0
2018-01-01T00:32:48.504Z,0
2018-01-01T00:33:48.487Z,0
2018-01-01T00:34:48.749Z,0
2018-01-01T00:35:47.973Z,0
2018-01-01T00:36:48.733Z,0
2018-01-01T00:37:48.514Z,0
2018-01-01T00:38:48.440Z,0
2018-01-01T00:39:48.708Z,0
2018-01-01T00:40:48.449Z,0
2018-01-01T00:41:48.677Z,0
2018-01-01T00:42:48.705Z,0
2018-01-01T00:43:48.408Z,0
2018-01-01T00:44:48.701Z,0
2018-01-01T00:45:48.384Z,0
2018-01-01T00:46:48.131Z,0
2018-01-01T00:47:48.103Z,0
2018-01-01T00:48:48.360Z,0
2018-01-01T00:49:48.370Z,0
2018-01-01T00:50:48.350Z,0
2018-01-01T00:51:48.337Z,0
2018-01-01T00:52:48.063Z,0
2018-01-01T00:53:48.327Z,0
2018-01-01T00:54:48.574Z,0
2018-01-01T00:55:48.062Z,0
2018-01-01T00:56:48.549Z,0
2018-01-01T00:57:48.577Z,0
2018-01-01T00:58:48.544Z,0
2018-01-01T00:59:48.278Z,0
2018-01-01T01:00:48.260Z,0
2018-01-01T01:01:48.514Z,0
2018-01-01T01:02:48.510Z,0
2018-01-01T01:03:48.481Z,0
2018-01-01T01:04:47.957Z,0
2018-01-01T01:05:47.957Z,0
2018-01-01T01:06:47.941Z,0
2018-01-01T01:07:48.192Z,0
2018-01-01T01:08:48.484Z,0
2018-01-01T01:09:48.428Z,0
2018-01-01T01:10:48.172Z,0
2018-01-01T01:11:48.154Z,0
2018-01-01T01:12:48.402Z,0
2018-01-01T01:13:48.396Z,0
2018-01-01T01:14:48.382Z,0
2018-01-01T01:15:48.406Z,0
2018-01-01T01:16:48.127Z,0
2018-01-01T01:17:48.373Z,0
2018-01-01T01:18:48.355Z,0
2018-01-01T01:19:48.103Z,0
2018-01-01T01:20:48.345Z,0
2018-01-01T01:21:47.569Z,0
2018-01-01T01:22:48.315Z,0
2018-01-01T01:23:48.321Z,0
2018-01-01T01:24:48.323Z,0
2018-01-01T01:25:47.790Z,0
2018-01-01T01:26:48.063Z,0
2018-01-01T01:27:48.024Z,0
2018-01-01T01:28:47.517Z,0
2018-01-01T01:29:47.754Z,0
2018-01-01T01:30:48.013Z,0
2018-01-01T01:31:47.993Z,0
2018-01-01T01:32:48.239Z,0
2018-01-01T01:33:47.969Z,0
2018-01-01T01:34:48.241Z,0
2018-01-01T01:35:47.955Z,0
2018-01-01T01:36:48.201Z,0
2018-01-01T01:37:48.202Z,0
2018-01-01T01:38:47.950Z,0
2018-01-01T01:39:48.180Z,0
2018-01-01T01:40:47.913Z,0
2018-01-01T01:41:48.162Z,0
2018-01-01T01:42:48.179Z,0
2018-01-01T01:43:48.155Z,0
2018-01-01T01:44:47.876Z,0
2018-01-01T01:45:48.145Z,0
2018-01-01T01:46:47.887Z,0
2018-01-01T01:47:47.868Z,0
2018-01-01T01:48:48.100Z,0
2018-01-01T01:49:47.844Z,0
2018-01-01T01:50:48.112Z,0
2018-01-01T01:51:47.566Z,0
2018-01-01T01:52:47.809Z,0
2018-01-01T01:53:48.084Z,0
2018-01-01T01:54:48.054Z,0
2018-01-01T01:55:48.043Z,0
2018-01-01T01:56:47.774Z,0
2018-01-01T01:57:48.041Z,0
2018-01-01T01:58:47.765Z,0
2018-01-01T01:59:47.754Z,0
2018-01-01T02:00:48.021Z,0
2018-01-01T02:01:47.740Z,0
2018-01-01T02:02:47.470Z,0
2018-01-01T02:03:47.968Z,0
2018-01-01T02:04:47.974Z,0
2018-01-01T02:05:47.715Z,0
2018-01-01T02:06:47.458Z,0
2018-01-01T02:07:47.957Z,0
2018-01-01T02:08:47.960Z,0
2018-01-01T02:09:47.925Z,0
2018-01-01T02:10:47.659Z,0
2018-01-01T02:11:47.652Z,0
2018-01-01T02:12:47.909Z,0
2018-01-01T02:13:47.902Z,0
2018-01-01T02:14:47.383Z,0
2018-01-01T02:15:47.944Z,0
2018-01-01T02:16:47.621Z,0
2018-01-01T02:17:47.340Z,0
2018-01-01T02:18:47.589Z,0
2018-01-01T02:19:47.840Z,0
2018-01-01T02:20:47.833Z,0
2018-01-01T02:21:47.315Z,0
2018-01-01T02:22:47.824Z,0
2018-01-01T02:23:47.799Z,0
2018-01-01T02:24:47.805Z,0
2018-01-01T02:25:47.792Z,0
2018-01-01T02:26:47.282Z,0
2018-01-01T02:27:47.776Z,0
2018-01-01T02:28:47.511Z,0
2018-01-01T02:29:47.762Z,0
2018-01-01T02:30:47.612Z,0
2018-01-01T02:31:47.513Z,0
2018-01-01T02:32:47.758Z,0
2018-01-01T02:33:47.733Z,0
2018-01-01T02:34:47.484Z,0
2018-01-01T02:35:47.457Z,0
2018-01-01T02:36:47.460Z,0
2018-01-01T02:37:47.443Z,0
2018-01-01T02:38:47.611Z,0
2018-01-01T02:39:47.417Z,0
2018-01-01T02:40:47.441Z,0
2018-01-01T02:41:47.675Z,0
2018-01-01T02:42:47.717Z,0
2018-01-01T02:43:47.416Z,0
2018-01-01T02:44:47.632Z,0
2018-01-01T02:45:47.116Z,0
2018-01-01T02:46:47.361Z,0
2018-01-01T02:47:47.358Z,0
2018-01-01T02:48:47.615Z,0
2018-01-01T02:49:47.598Z,0
2018-01-01T02:50:47.334Z,0
2018-01-01T02:51:47.609Z,0
2018-01-01T02:52:47.081Z,0
2018-01-01T02:53:47.573Z,0
2018-01-01T02:54:47.566Z,0
2018-01-01T02:55:47.551Z,0
2018-01-01T02:56:47.552Z,0
2018-01-01T02:57:47.537Z,0
2018-01-01T02:58:47.282Z,0
2018-01-01T02:59:47.526Z,0
2018-01-01T03:00:47.285Z,0
2018-01-01T03:01:47.519Z,0
2018-01-01T03:02:47.495Z,0
2018-01-01T03:03:47.233Z,0
2018-01-01T03:04:47.231Z,0
2018-01-01T03:05:47.211Z,0
2018-01-01T03:06:47.460Z,0
2018-01-01T03:07:47.458Z,0
2018-01-01T03:08:47.463Z,0
2018-01-01T03:09:47.452Z,0
2018-01-01T03:10:47.483Z,0
2018-01-01T03:11:47.439Z,0
2018-01-01T03:12:47.422Z,0
2018-01-01T03:13:47.397Z,0
2018-01-01T03:14:47.144Z,0
2018-01-01T03:15:47.401Z,0
2018-01-01T03:16:47.125Z,0
2018-01-01T03:17:47.107Z,0
2018-01-01T03:18:47.368Z,0
2018-01-01T03:19:47.127Z,0
2018-01-01T03:20:47.085Z,0
2018-01-01T03:21:47.338Z,0
2018-01-01T03:22:46.816Z,0
2018-01-01T03:23:47.335Z,0
2018-01-01T03:24:47.319Z,0
2018-01-01T03:25:47.304Z,0
2018-01-01T03:26:47.043Z,0
2018-01-01T03:27:47.043Z,0
2018-01-01T03:28:47.294Z,0
2018-01-01T03:29:46.243Z,0
2018-01-01T03:30:47.290Z,0
2018-01-01T03:31:47.252Z,0
2018-01-01T03:32:47.274Z,0
2018-01-01T03:33:47.253Z,0
2018-01-01T03:34:46.976Z,0
2018-01-01T03:35:47.220Z,0
2018-01-01T03:36:47.218Z,0
2018-01-01T03:37:46.967Z,0
2018-01-01T03:38:46.943Z,0
2018-01-01T03:39:46.949Z,0
2018-01-01T03:40:47.210Z,0
2018-01-01T03:41:47.190Z,0
2018-01-01T03:42:46.924Z,0
2018-01-01T03:43:47.157Z,0
2018-01-01T03:44:47.162Z,0
2018-01-01T03:45:47.140Z,0
2018-01-01T03:46:46.884Z,0
2018-01-01T03:47:46.886Z,0
2018-01-01T03:48:47.124Z,0
2018-01-01T03:49:47.119Z,0
2018-01-01T03:50:46.607Z,0
2018-01-01T03:51:47.131Z,0
2018-01-01T03:52:47.085Z,0
2018-01-01T03:53:47.078Z,0
2018-01-01T03:54:46.824Z,0
2018-01-01T03:55:46.796Z,0
2018-01-01T03:56:47.063Z,0
2018-01-01T03:57:46.535Z,0
2018-01-01T03:58:47.025Z,0
2018-01-01T03:59:47.030Z,0
2018-01-01T04:00:46.760Z,0
2018-01-01T04:01:46.753Z,0
2018-01-01T04:02:47.009Z,0
2018-01-01T04:03:46.979Z,0
2018-01-01T04:04:46.734Z,0
2018-01-01T04:05:46.994Z,0
2018-01-01T04:06:46.978Z,0
2018-01-01T04:07:46.706Z,0
2018-01-01T04:08:46.684Z,0
2018-01-01T04:09:46.938Z,0
2018-01-01T04:10:46.942Z,0
2018-01-01T04:11:46.664Z,0
2018-01-01T04:12:46.915Z,0
2018-01-01T04:13:46.916Z,0
2018-01-01T04:14:46.639Z,0
2018-01-01T04:15:46.911Z,0
2018-01-01T04:16:46.883Z,0
2018-01-01T04:17:46.897Z,0
2018-01-01T04:18:46.862Z,0
2018-01-01T04:19:46.879Z,0
2018-01-01T04:20:46.612Z,0
2018-01-01T04:21:46.848Z,0
2018-01-01T04:22:46.322Z,0
2018-01-01T04:23:46.817Z,0
2018-01-01T04:24:46.550Z,0
2018-01-01T04:25:46.803Z,0
2018-01-01T04:26:46.286Z,0
2018-01-01T04:27:46.793Z,0
2018-01-01T04:28:46.278Z,0
2018-01-01T04:29:46.800Z,0
2018-01-01T04:30:46.511Z,0
2018-01-01T04:31:46.494Z,0
2018-01-01T04:32:46.492Z,0
2018-01-01T04:33:46.484Z,0
2018-01-01T04:34:46.468Z,0
2018-01-01T04:35:46.715Z,0
2018-01-01T04:36:46.212Z,0
2018-01-01T04:37:46.707Z,0
2018-01-01T04:38:46.706Z,0
2018-01-01T04:39:46.451Z,0
2018-01-01T04:40:46.668Z,0
2018-01-01T04:41:46.405Z,0
2018-01-01T04:42:46.157Z,0
2018-01-01T04:43:46.655Z,0
2018-01-01T04:44:46.638Z,0
2018-01-01T04:45:46.640Z,0
2018-01-01T04:46:46.368Z,0
2018-01-01T04:47:46.375Z,0
2018-01-01T04:48:46.622Z,0
2018-01-01T04:49:46.609Z,0
2018-01-01T04:50:46.590Z,0
2018-01-01T04:51:46.330Z,0
2018-01-01T04:52:46.572Z,0
2018-01-01T04:53:46.570Z,0
2018-01-01T04:54:46.566Z,0
2018-01-01T04:55:46.559Z,0
2018-01-01T04:56:46.541Z,0
2018-01-01T04:57:46.275Z,0
2018-01-01T04:58:46.539Z,0
2018-01-01T04:59:46.505Z,0
2018-01-01T05:00:46.515Z,0
2018-01-01T05:01:46.513Z,0
2018-01-01T05:02:46.493Z,0
2018-01-01T05:03:45.982Z,0
2018-01-01T05:04:46.480Z,0
2018-01-01T05:05:45.696Z,0
2018-01-01T05:06:45.937Z,0
2018-01-01T05:07:46.458Z,0
2018-01-01T05:08:46.167Z,0
2018-01-01T05:09:45.918Z,0
2018-01-01T05:10:46.162Z,0
2018-01-01T05:11:46.162Z,0
2018-01-01T05:12:46.415Z,0
2018-01-01T05:13:46.399Z,0
2018-01-01T05:14:46.379Z,0
2018-01-01T05:15:46.383Z,0
2018-01-01T05:16:46.364Z,0
2018-01-01T05:17:46.105Z,0
2018-01-01T05:18:46.353Z,0
2018-01-01T05:19:46.340Z,0
2018-01-01T05:20:46.328Z,0
2018-01-01T05:21:46.327Z,0
2018-01-01T05:22:46.326Z,0
2018-01-01T05:23:46.296Z,0
2018-01-01T05:24:45.776Z,0
2018-01-01T05:25:46.031Z,0
2018-01-01T05:26:46.022Z,0
2018-01-01T05:27:46.259Z,0
2018-01-01T05:28:46.254Z,0
2018-01-01T05:29:46.002Z,0
2018-01-01T05:30:46.235Z,0
2018-01-01T05:31:45.967Z,0
2018-01-01T05:32:46.221Z,0
2018-01-01T05:33:46.224Z,0
2018-01-01T05:34:45.691Z,0
2018-01-01T05:35:46.188Z,0
2018-01-01T05:36:45.936Z,0
2018-01-01T05:37:45.912Z,0
2018-01-01T05:38:45.925Z,0
2018-01-01T05:39:45.891Z,0
2018-01-01T05:40:46.149Z,0
2018-01-01T05:41:46.146Z,0
2018-01-01T05:42:46.125Z,0
2018-01-01T05:43:46.171Z,0
2018-01-01T05:44:46.139Z,0
2018-01-01T05:45:46.113Z,0
2018-01-01T05:46:46.110Z,0
2018-01-01T05:47:45.885Z,0
2018-01-01T05:48:46.084Z,0
2018-01-01T05:49:46.081Z,0
2018-01-01T05:50:46.071Z,0
2018-01-01T05:51:46.056Z,0
2018-01-01T05:52:46.060Z,0
2018-01-01T05:53:45.797Z,0
2018-01-01T05:54:45.775Z,0
2018-01-01T05:55:45.754Z,0
2018-01-01T05:56:45.995Z,0
2018-01-01T05:57:45.986Z,0
2018-01-01T05:58:45.996Z,0
2018-01-01T05:59:46.000Z,0
2018-01-01T06:00:46.011Z,0
2018-01-01T06:01:45.708Z,0
2018-01-01T06:02:45.695Z,0
2018-01-01T06:03:45.672Z,0
2018-01-01T06:04:45.677Z,0
2018-01-01T06:05:45.666Z,0
2018-01-01T06:06:45.965Z,0
2018-01-01T06:07:45.909Z,0
2018-01-01T06:08:45.378Z,0
2018-01-01T06:09:45.889Z,0
2018-01-01T06:10:45.618Z,0
2018-01-01T06:11:45.865Z,0
2018-01-01T06:12:45.867Z,0
2018-01-01T06:13:45.851Z,0
2018-01-01T06:14:45.882Z,0
2018-01-01T06:15:45.844Z,0
2018-01-01T06:16:45.814Z,0
2018-01-01T06:17:45.822Z,0
2018-01-01T06:18:45.539Z,0
2018-01-01T06:19:45.802Z,0
2018-01-01T06:20:45.779Z,0
2018-01-01T06:21:45.796Z,0
2018-01-01T06:22:45.759Z,0
2018-01-01T06:23:45.498Z,0
2018-01-01T06:24:45.513Z,0
2018-01-01T06:25:45.730Z,0
2018-01-01T06:26:45.488Z,0
2018-01-01T06:27:45.726Z,0
2018-01-01T06:28:45.711Z,0
2018-01-01T06:29:45.452Z,0
2018-01-01T06:30:45.428Z,0
2018-01-01T06:31:45.445Z,0
2018-01-01T06:32:45.675Z,0
2018-01-01T06:33:45.401Z,0
2018-01-01T06:34:45.651Z,0
2018-01-01T06:35:45.408Z,0
2018-01-01T06:36:44.867Z,0
2018-01-01T06:37:45.660Z,0
2018-01-01T06:38:45.622Z,0
2018-01-01T06:39:45.625Z,0
2018-01-01T06:40:45.590Z,0
2018-01-01T06:41:45.655Z,0
2018-01-01T06:42:45.326Z,0
2018-01-01T06:43:45.375Z,0
2018-01-01T06:44:45.590Z,0
2018-01-01T06:45:45.318Z,0
2018-01-01T06:46:45.551Z,0
2018-01-01T06:47:45.532Z,0
2018-01-01T06:48:45.532Z,0
2018-01-01T06:49:45.520Z,0
2018-01-01T06:50:45.509Z,0
2018-01-01T06:51:45.496Z,0
2018-01-01T06:52:45.478Z,0
2018-01-01T06:53:45.230Z,0
2018-01-01T06:54:45.217Z,0
2018-01-01T06:55:45.212Z,0
2018-01-01T06:56:45.203Z,0
2018-01-01T06:57:45.464Z,0
2018-01-01T06:58:45.431Z,0
2018-01-01T06:59:45.420Z,0
2018-01-01T07:00:45.414Z,0
2018-01-01T07:01:45.399Z,0
2018-01-01T07:02:45.411Z,0
2018-01-01T07:03:45.384Z,0
2018-01-01T07:04:45.373Z,0
2018-01-01T07:05:45.428Z,0
2018-01-01T07:06:45.373Z,0
2018-01-01T07:07:45.362Z,5
2018-01-01T07:08:45.328Z,5
2018-01-01T07:09:45.085Z,5
2018-01-01T07:10:45.310Z,5
2018-01-01T07:11:45.315Z,5
2018-01-01T07:12:45.293Z,5
2018-01-01T07:13:45.070Z,5
2018-01-01T07:14:45.023Z,5
2018-01-01T07:15:45.051Z,10
2018-01-01T07:16:45.284Z,10
2018-01-01T07:17:45.260Z,10
2018-01-01T07:18:45.261Z,10
2018-01-01T07:19:44.721Z,10
2018-01-01T07:20:44.979Z,10
2018-01-01T07:21:45.282Z,10
2018-01-01T07:22:44.948Z,15
2018-01-01T07:23:44.941Z,15
2018-01-01T07:24:45.186Z,15
2018-01-01T07:25:44.927Z,15
2018-01-01T07:26:44.659Z,15
2018-01-01T07:27:44.911Z,15
2018-01-01T07:28:44.886Z,20
2018-01-01T07:29:45.142Z,20
2018-01-01T07:30:44.619Z,25
2018-01-01T07:31:44.858Z,25
2018-01-01T07:32:45.117Z,25
2018-01-01T07:33:45.123Z,30
2018-01-01T07:34:45.103Z,35
2018-01-01T07:35:45.071Z,35
2018-01-01T07:36:45.067Z,35
2018-01-01T07:37:44.821Z,40
2018-01-01T07:38:45.041Z,40
2018-01-01T07:39:45.048Z,40
2018-01-01T07:40:45.023Z,45
2018-01-01T07:41:45.025Z,45
2018-01-01T07:42:44.763Z,50
2018-01-01T07:43:44.745Z,50
2018-01-01T07:44:44.736Z,50
2018-01-01T07:45:44.471Z,50
2018-01-01T07:46:44.985Z,50
2018-01-01T07:47:44.971Z,55
2018-01-01T07:48:44.947Z,55
2018-01-01T07:49:44.948Z,55
2018-01-01T07:50:44.940Z,55
2018-01-01T07:51:44.922Z,55
2018-01-01T07:52:44.904Z,60
2018-01-01T07:53:44.909Z,60
2018-01-01T07:54:44.894Z,60
2018-01-01T07:55:44.873Z,60
2018-01-01T07:56:44.873Z,60
2018-01-01T07:57:44.591Z,65
2018-01-01T07:58:44.855Z,70
2018-01-01T07:59:44.843Z,65
2018-01-01T08:00:44.844Z,65
2018-01-01T08:01:44.821Z,65
2018-01-01T08:02:44.809Z,70
2018-01-01T08:03:44.795Z,70
2018-01-01T08:04:44.804Z,75
2018-01-01T08:05:44.270Z,80
2018-01-01T08:06:44.760Z,80
2018-01-01T08:07:44.522Z,80
2018-01-01T08:08:44.769Z,80
2018-01-01T08:09:44.741Z,80
2018-01-01T08:10:44.464Z,80
2018-01-01T08:11:44.814Z,85
2018-01-01T08:12:44.700Z,80
2018-01-01T08:13:44.708Z,85
2018-01-01T08:14:44.172Z,85
2018-01-01T08:15:44.407Z,85
2018-01-01T08:16:44.422Z,85
2018-01-01T08:17:44.454Z,85
2018-01-01T08:18:44.400Z,85
2018-01-01T08:19:44.658Z,90
2018-01-01T08:20:44.640Z,90
2018-01-01T08:21:44.628Z,95
2018-01-01T08:22:44.365Z,100
2018-01-01T08:23:44.345Z,105
2018-01-01T08:24:44.077Z,105
2018-01-01T08:25:44.572Z,110
2018-01-01T08:26:44.572Z,115
2018-01-01T08:27:44.311Z,120
2018-01-01T08:28:44.620Z,120
2018-01-01T08:29:44.272Z,125
2018-01-01T08:30:44.520Z,125
2018-01-01T08:31:44.246Z,120
2018-01-01T08:32:44.518Z,110
2018-01-01T08:33:44.503Z,105
2018-01-01T08:34:44.224Z,105
2018-01-01T08:35:44.221Z,105
2018-01-01T08:36:44.217Z,110
2018-01-01T08:37:44.204Z,135
2018-01-01T08:38:44.446Z,155
2018-01-01T08:39:44.484Z,160
2018-01-01T08:40:44.428Z,150
2018-01-01T08:41:44.420Z,135
2018-01-01T08:42:44.426Z,135
2018-01-01T08:43:44.133Z,130
2018-01-01T08:44:44.395Z,130
2018-01-01T08:45:44.361Z,130
2018-01-01T08:46:44.396Z,135
2018-01-01T08:47:44.418Z,140
2018-01-01T08:48:44.348Z,140
2018-01-01T08:49:44.088Z,135
2018-01-01T08:50:44.066Z,145
2018-01-01T08:51:44.052Z,160
2018-01-01T08:52:44.345Z,155
2018-01-01T08:53:44.057Z,160
2018-01-01T08:54:44.286Z,150
2018-01-01T08:55:44.003Z,140
2018-01-01T08:56:44.272Z,135
2018-01-01T08:57:43.739Z,130
2018-01-01T08:58:44.302Z,130
2018-01-01T08:59:44.232Z,140
2018-01-01T09:00:44.223Z,135
2018-01-01T09:01:44.215Z,130
2018-01-01T09:02:44.224Z,125
2018-01-01T09:03:44.199Z,125
2018-01-01T09:04:44.203Z,120
2018-01-01T09:05:44.216Z,125
2018-01-01T09:06:43.664Z,125
2018-01-01T09:07:44.174Z,135
2018-01-01T09:08:44.162Z,145
2018-01-01T09:09:44.142Z,135
2018-01-01T09:10:44.144Z,135
2018-01-01T09:11:44.138Z,135
2018-01-01T09:12:44.115Z,135
2018-01-01T09:13:43.839Z,145
2018-01-01T09:14:44.085Z,175
2018-01-01T09:15:43.577Z,165
2018-01-01T09:16:44.061Z,155
2018-01-01T09:17:44.062Z,150
2018-01-01T09:18:44.072Z,150
2018-01-01T09:19:43.801Z,140
2018-01-01T09:20:44.091Z,135
2018-01-01T09:21:43.765Z,145
2018-01-01T09:22:43.515Z,165
2018-01-01T09:23:43.766Z,185
2018-01-01T09:24:44.007Z,180
2018-01-01T09:25:43.742Z,175
2018-01-01T09:26:43.731Z,160
2018-01-01T09:27:43.724Z,150
2018-01-01T09:28:43.962Z,135
2018-01-01T09:29:43.439Z,135
2018-01-01T09:30:43.945Z,130
2018-01-01T09:31:43.940Z,135
2018-01-01T09:32:43.693Z,140
2018-01-01T09:33:43.400Z,150
2018-01-01T09:34:43.894Z,150
2018-01-01T09:35:43.665Z,145
2018-01-01T09:36:43.885Z,145
2018-01-01T09:37:43.359Z,140
2018-01-01T09:38:43.879Z,160
2018-01-01T09:39:43.892Z,165
2018-01-01T09:40:43.860Z,170
2018-01-01T09:41:43.850Z,155
2018-01-01T09:42:43.840Z,145
2018-01-01T09:43:43.829Z,135
2018-01-01T09:44:43.566Z,140
2018-01-01T09:45:43.555Z,135
2018-01-01T09:46:43.788Z,140
2018-01-01T09:47:43.535Z,145
2018-01-01T09:48:43.779Z,145
2018-01-01T09:49:43.777Z,145
2018-01-01T09:50:43.506Z,150
2018-01-01T09:51:43.233Z,170
2018-01-01T09:52:43.483Z,180
2018-01-01T09:53:43.725Z,165
2018-01-01T09:54:43.472Z,155
2018-01-01T09:55:43.701Z,155
2018-01-01T09:56:43.708Z,155
2018-01-01T09:57:43.717Z,155
2018-01-01T09:58:43.707Z,155
2018-01-01T09:59:43.685Z,160
2018-01-01T10:00:43.691Z,155
2018-01-01T10:01:43.416Z,155
2018-01-01T10:02:43.652Z,150
2018-01-01T10:03:43.119Z,145
2018-01-01T10:04:43.647Z,145
2018-01-01T10:05:43.624Z,155
2018-01-01T10:06:43.607Z,165
2018-01-01T10:07:43.598Z,170
2018-01-01T10:08:43.611Z,165
2018-01-01T10:09:43.626Z,165
2018-01-01T10:10:43.582Z,160
2018-01-01T10:11:43.610Z,150
2018-01-01T10:12:43.557Z,145
2018-01-01T10:13:42.780Z,140
2018-01-01T10:14:43.554Z,140
2018-01-01T10:15:43.593Z,145
2018-01-01T10:16:43.259Z,145
2018-01-01T10:17:43.610Z,150
2018-01-01T10:18:43.267Z,145
2018-01-01T10:19:42.974Z,140
2018-01-01T10:20:43.225Z,140
2018-01-01T10:21:43.218Z,140
2018-01-01T10:22:42.971Z,135
2018-01-01T10:23:42.953Z,140
2018-01-01T10:24:43.204Z,145
2018-01-01T10:25:43.444Z,150
2018-01-01T10:26:43.436Z,160
2018-01-01T10:27:43.423Z,165
2018-01-01T10:28:43.428Z,165
2018-01-01T10:29:43.409Z,155
2018-01-01T10:30:43.387Z,140
2018-01-01T10:31:43.380Z,135
2018-01-01T10:32:43.138Z,130
2018-01-01T10:33:43.370Z,140
2018-01-01T10:34:43.343Z,150
2018-01-01T10:35:43.093Z,160
2018-01-01T10:36:43.095Z,165
2018-01-01T10:37:43.359Z,170
2018-01-01T10:38:42.814Z,180
2018-01-01T10:39:43.071Z,205
2018-01-01T10:40:43.303Z,200
2018-01-01T10:41:43.028Z,190
2018-01-01T10:42:43.031Z,155
2018-01-01T10:43:43.290Z,150
2018-01-01T10:44:43.279Z,175
2018-01-01T10:45:43.005Z,170
2018-01-01T10:46:42.742Z,170
2018-01-01T10:47:42.987Z,180
2018-01-01T10:48:42.997Z,190
2018-01-01T10:49:43.249Z,200
2018-01-01T10:50:43.252Z,235
2018-01-01T10:51:43.219Z,225
2018-01-01T10:52:43.016Z,215
2018-01-01T10:53:42.944Z,225
2018-01-01T10:54:42.919Z,210
2018-01-01T10:55:43.172Z,210
2018-01-01T10:56:43.166Z,210
2018-01-01T10:57:42.644Z,205
2018-01-01T10:58:42.902Z,195
2018-01-01T10:59:43.144Z,200
2018-01-01T11:00:43.141Z,170
2018-01-01T11:01:43.127Z,160
2018-01-01T11:02:43.118Z,180
2018-01-01T11:03:42.854Z,200
2018-01-01T11:04:42.845Z,215
2018-01-01T11:05:43.149Z,200
2018-01-01T11:06:42.824Z,220
2018-01-01T11:07:42.822Z,220
2018-01-01T11:08:42.820Z,245
2018-01-01T11:09:43.073Z,250
2018-01-01T11:10:42.795Z,250
2018-01-01T11:11:43.036Z,245
2018-01-01T11:12:43.036Z,260
2018-01-01T11:13:43.016Z,230
2018-01-01T11:14:43.063Z,220
2018-01-01T11:15:43.037Z,215
2018-01-01T11:16:43.066Z,200
2018-01-01T11:17:42.729Z,195
2018-01-01T11:18:42.985Z,195
2018-01-01T11:19:42.465Z,175
2018-01-01T11:20:42.986Z,170
2018-01-01T11:21:42.959Z,180
2018-01-01T11:22:42.943Z,160
2018-01-01T11:23:42.692Z,160
2018-01-01T11:24:42.947Z,160
2018-01-01T11:25:42.932Z,150
2018-01-01T11:26:42.918Z,145
2018-01-01T11:27:42.940Z,140
2018-01-01T11:28:42.397Z,135
2018-01-01T11:29:42.654Z,130
2018-01-01T11:30:42.648Z,140
2018-01-01T11:31:42.629Z,155
2018-01-01T11:32:42.891Z,160
2018-01-01T11:33:42.365Z,160
2018-01-01T11:34:42.868Z,150
2018-01-01T11:35:42.838Z,145
2018-01-01T11:36:42.840Z,140
2018-01-01T11:37:42.834Z,140
2018-01-01T11:38:42.589Z,135
2018-01-01T11:39:42.586Z,135
2018-01-01T11:40:42.825Z,140
2018-01-01T11:41:42.540Z,135
2018-01-01T11:42:42.820Z,135
2018-01-01T11:43:42.799Z,135
2018-01-01T11:44:42.864Z,135
2018-01-01T11:45:42.549Z,135
2018-01-01T11:46:42.521Z,135
2018-01-01T11:47:42.757Z,135
2018-01-01T11:48:42.495Z,130
2018-01-01T11:49:42.735Z,130
2018-01-01T11:50:42.731Z,130
2018-01-01T11:51:42.716Z,130
2018-01-01T11:52:42.464Z,130
2018-01-01T11:53:42.704Z,130
2018-01-01T11:54:42.431Z,130
2018-01-01T11:55:42.193Z,130
2018-01-01T11:56:42.695Z,130
2018-01-01T11:57:42.424Z,130
2018-01-01T11:58:42.670Z,130
2018-01-01T11:59:42.672Z,135
2018-01-01T12:00:42.643Z,135
2018-01-01T12:01:42.615Z,130
2018-01-01T12:02:42.616Z,130
2018-01-01T12:03:42.102Z,130
2018-01-01T12:04:42.601Z,135
2018-01-01T12:05:42.613Z,150
2018-01-01T12:06:42.329Z,165
2018-01-01T12:07:42.314Z,160
2018-01-01T12:08:42.314Z,150
2018-01-01T12:09:42.304Z,165
2018-01-01T12:10:42.577Z,185
2018-01-01T12:11:42.284Z,170
2018-01-01T12:12:42.023Z,165
2018-01-01T12:13:42.540Z,185
2018-01-01T12:14:42.267Z,185
2018-01-01T12:15:42.502Z,170
2018-01-01T12:16:42.250Z,155
2018-01-01T12:17:42.226Z,135
2018-01-01T12:18:42.502Z,140
2018-01-01T12:19:42.477Z,155
2018-01-01T12:20:42.500Z,165
2018-01-01T12:21:42.463Z,155
2018-01-01T12:22:42.437Z,175
2018-01-01T12:23:42.474Z,185
2018-01-01T12:24:42.175Z,170
2018-01-01T12:25:42.162Z,160
2018-01-01T12:26:42.157Z,140
2018-01-01T12:27:42.402Z,120
2018-01-01T12:28:42.388Z,135
2018-01-01T12:29:42.426Z,145
2018-01-01T12:30:42.128Z,145
2018-01-01T12:31:42.113Z,130
2018-01-01T12:32:42.107Z,120
2018-01-01T12:33:42.345Z,120
2018-01-01T12:34:42.071Z,110
2018-01-01T12:35:42.327Z,110
2018-01-01T12:36:42.062Z,110
2018-01-01T12:37:42.043Z,120
2018-01-01T12:38:42.062Z,125
2018-01-01T12:39:41.794Z,125
2018-01-01T12:40:41.764Z,130
2018-01-01T12:41:42.039Z,130
2018-01-01T12:42:42.001Z,125
2018-01-01T12:43:42.007Z,135
2018-01-01T12:44:42.242Z,140
2018-01-01T12:45:41.987Z,135
2018-01-01T12:46:42.230Z,130
2018-01-01T12:47:41.978Z,120
2018-01-01T12:48:41.958Z,135
2018-01-01T12:49:41.963Z,145
2018-01-01T12:50:41.955Z,150
2018-01-01T12:51:42.224Z,145
2018-01-01T12:52:41.951Z,140
2018-01-01T12:53:42.221Z,145
2018-01-01T12:54:42.154Z,135
2018-01-01T12:55:42.161Z,135
2018-01-01T12:56:42.142Z,140
2018-01-01T12:57:41.658Z,140
2018-01-01T12:58:42.134Z,120
2018-01-01T12:59:42.125Z,100
2018-01-01T13:00:42.126Z,80
2018-01-01T13:01:42.106Z,80
2018-01-01T13:02:42.111Z,75
2018-01-01T13:03:41.856Z,60
2018-01-01T13:04:42.082Z,60
2018-01-01T13:05:42.101Z,85
2018-01-01T13:06:41.830Z,100
2018-01-01T13:07:41.812Z,110
2018-01-01T13:08:41.797Z,110
2018-01-01T13:09:41.787Z,110
2018-01-01T13:10:42.027Z,125
2018-01-01T13:11:41.514Z,130
2018-01-01T13:12:42.025Z,120
2018-01-01T13:13:42.008Z,125
2018-01-01T13:14:41.754Z,125
2018-01-01T13:15:42.003Z,120
2018-01-01T13:16:41.472Z,110
2018-01-01T13:17:41.983Z,105
2018-01-01T13:18:41.705Z,120
2018-01-01T13:19:41.961Z,150
2018-01-01T13:20:41.705Z,150
2018-01-01T13:21:41.689Z,135
2018-01-01T13:22:41.933Z,125
2018-01-01T13:23:41.157Z,125
2018-01-01T13:24:41.933Z,115
2018-01-01T13:25:41.392Z,115
2018-01-01T13:26:41.899Z,115
2018-01-01T13:27:41.892Z,105
2018-01-01T13:28:41.363Z,100
2018-01-01T13:29:41.874Z,100
2018-01-01T13:30:41.365Z,125
2018-01-01T13:31:41.848Z,120
2018-01-01T13:32:41.690Z,125
2018-01-01T13:33:41.837Z,120
2018-01-01T13:34:42.046Z,105
2018-01-01T13:35:41.842Z,95
2018-01-01T13:36:41.564Z,90
2018-01-01T13:37:41.549Z,90
2018-01-01T13:38:41.549Z,90
2018-01-01T13:39:41.783Z,90
2018-01-01T13:40:41.518Z,85
2018-01-01T13:41:41.537Z,80
2018-01-01T13:42:41.790Z,80
2018-01-01T13:43:41.499Z,80
2018-01-01T13:44:41.490Z,80
2018-01-01T13:45:41.744Z,75
2018-01-01T13:46:41.728Z,80
2018-01-01T13:47:41.730Z,85
2018-01-01T13:48:41.752Z,80
2018-01-01T13:49:41.705Z,80
2018-01-01T13:50:41.443Z,80
2018-01-01T13:51:41.684Z,85
2018-01-01T13:52:41.697Z,75
2018-01-01T13:53:41.658Z,70
2018-01-01T13:54:41.389Z,65
2018-01-01T13:55:41.394Z,55
2018-01-01T13:56:41.631Z,50
2018-01-01T13:57:41.630Z,45
2018-01-01T13:58:41.617Z,45
2018-01-01T13:59:41.610Z,50
2018-01-01T14:00:41.343Z,50
2018-01-01T14:01:41.347Z,50
2018-01-01T14:02:41.584Z,50
2018-01-01T14:03:41.575Z,50
2018-01-01T14:04:41.572Z,50
2018-01-01T14:05:41.562Z,60
2018-01-01T14:06:41.532Z,60
2018-01-01T14:07:41.530Z,55
2018-01-01T14:08:41.525Z,55
2018-01-01T14:09:41.507Z,55
2018-01-01T14:10:41.245Z,55
2018-01-01T14:11:41.245Z,55
2018-01-01T14:12:41.225Z,55
2018-01-01T14:13:41.469Z,55
2018-01-01T14:14:41.203Z,55
2018-01-01T14:15:41.188Z,60
2018-01-01T14:16:41.451Z,60
2018-01-01T14:17:41.179Z,60
2018-01-01T14:18:41.162Z,60
2018-01-01T14:19:41.420Z,60
2018-01-01T14:20:41.162Z,60